createdAt,value
2023-05-09T00:00:09.957Z,17.4907
2023-05-09T00:01:11.816Z,17.4614
2023-05-09T00:02:14.529Z,17.2674
2023-05-09T00:03:16.793Z,16.8701
2023-05-09T00:04:19.277Z,16.7558
2023-05-09T00:05:21.245Z,17.1105
2023-05-09T00:06:23.892Z,17.3350
2023-05-09T00:07:25.814Z,17.4178
2023-05-09T00:08:28.144Z,17.4788
2023-05-09T00:09:30.539Z,17.5275
2023-05-09T00:10:32.847Z,17.4845
2023-05-09T00:11:35.199Z,17.4451
2023-05-09T00:12:37.503Z,17.4674
2023-05-09T00:13:39.870Z,17.5317
2023-05-09T00:14:42.179Z,17.4907
2023-05-09T00:15:44.619Z,17.5090
2023-05-09T00:16:46.901Z,17.3383
2023-05-09T00:17:49.225Z,17.3577
2023-05-09T00:18:51.500Z,17.2391
2023-05-09T00:19:53.983Z,17.1779
2023-05-09T00:20:56.271Z,17.3919
2023-05-09T00:21:58.606Z,17.4970
2023-05-09T00:23:00.919Z,17.4894
2023-05-09T00:24:03.184Z,17.3655
2023-05-09T00:25:05.627Z,17.2586
2023-05-09T00:26:07.878Z,17.3423
2023-05-09T00:27:10.241Z,17.2909
2023-05-09T00:28:12.533Z,17.3443
2023-05-09T00:29:14.949Z,17.3691
2023-05-09T00:30:17.596Z,17.4850
2023-05-09T00:31:19.533Z,17.6171
2023-05-09T00:32:21.896Z,17.6039
2023-05-09T00:33:24.355Z,17.3632
2023-05-09T00:34:26.752Z,17.3492
2023-05-09T00:35:28.889Z,17.4928
2023-05-09T00:36:31.566Z,17.1762
2023-05-09T00:37:33.583Z,17.2987
2023-05-09T00:38:36.000Z,17.4235
2023-05-09T00:39:38.472Z,17.4687
2023-05-09T00:40:41.639Z,17.3964
2023-05-09T00:41:42.910Z,17.2469
2023-05-09T00:42:45.264Z,17.3305
2023-05-09T00:43:47.849Z,17.3706
2023-05-09T00:44:50.260Z,17.3842
2023-05-09T00:45:52.567Z,17.1042
2023-05-09T00:46:54.735Z,16.8198
2023-05-09T00:47:57.128Z,17.0386
2023-05-09T00:48:59.272Z,17.3181
2023-05-09T00:50:02.089Z,17.4307
2023-05-09T00:51:03.950Z,17.5134
2023-05-09T00:52:06.337Z,17.5223
2023-05-09T00:53:08.887Z,17.5324
2023-05-09T00:54:10.968Z,17.5235
2023-05-09T00:55:13.756Z,17.5143
2023-05-09T00:56:15.919Z,17.4623
2023-05-09T00:57:17.948Z,17.4587
2023-05-09T00:58:20.713Z,17.4523
2023-05-09T00:59:23.285Z,17.3421
2023-05-09T01:00:25.024Z,17.3606
2023-05-09T01:01:27.345Z,17.4042
2023-05-09T01:02:29.857Z,17.4231
2023-05-09T01:03:32.116Z,17.5148
2023-05-09T01:04:34.290Z,17.4525
2023-05-09T01:05:36.672Z,17.3494
2023-05-09T01:06:39.251Z,17.3130
2023-05-09T01:07:41.415Z,17.1625
2023-05-09T01:08:43.726Z,17.3670
2023-05-09T01:09:45.977Z,17.4396
2023-05-09T01:10:48.447Z,17.4751
2023-05-09T01:11:50.712Z,17.5232
2023-05-09T01:12:53.048Z,17.5037
2023-05-09T01:13:55.603Z,17.5310
2023-05-09T01:14:57.691Z,17.5364
2023-05-09T01:16:00.411Z,17.5993
2023-05-09T01:17:02.574Z,17.5410
2023-05-09T01:18:05.257Z,17.3020
2023-05-09T01:19:07.680Z,17.0691
2023-05-09T01:20:09.373Z,17.3283
2023-05-09T01:21:11.778Z,17.4144
2023-05-09T01:22:14.231Z,17.5381
2023-05-09T01:23:17.273Z,17.5295
2023-05-09T01:24:19.839Z,17.5860
2023-05-09T01:25:21.334Z,17.6318
2023-05-09T01:26:23.686Z,17.6485
2023-05-09T01:27:26.430Z,17.6832
2023-05-09T01:28:28.096Z,17.6774
2023-05-09T01:29:30.395Z,17.6020
2023-05-09T01:30:33.527Z,17.5544
2023-05-09T01:31:36.737Z,17.4934
2023-05-09T01:32:37.866Z,17.3933
2023-05-09T01:33:39.795Z,17.3982
2023-05-09T01:34:42.086Z,17.4367
2023-05-09T01:35:44.410Z,17.4371
2023-05-09T01:36:46.746Z,17.4574
2023-05-09T01:37:49.249Z,17.4513
2023-05-09T01:38:51.553Z,17.3857
2023-05-09T01:39:54.128Z,17.3695
2023-05-09T01:40:56.220Z,17.3955
2023-05-09T01:41:58.423Z,17.3962
2023-05-09T01:43:00.819Z,17.3290
2023-05-09T01:44:03.328Z,17.3230
2023-05-09T01:45:05.440Z,17.3607
2023-05-09T01:46:07.877Z,17.3447
2023-05-09T01:47:10.138Z,17.3063
2023-05-09T01:48:12.462Z,17.2079
2023-05-09T01:49:14.802Z,17.2146
2023-05-09T01:50:17.379Z,17.2464
2023-05-09T01:51:19.622Z,17.0417
2023-05-09T01:52:21.784Z,17.0448
2023-05-09T01:53:24.216Z,16.9408
2023-05-09T01:54:26.935Z,16.9331
2023-05-09T01:55:28.804Z,16.9275
2023-05-09T01:56:31.210Z,17.0206
2023-05-09T01:57:33.508Z,16.9175
2023-05-09T01:58:36.312Z,16.9384
2023-05-09T01:59:38.233Z,16.8623
2023-05-09T02:00:40.570Z,16.9930
2023-05-09T02:01:42.886Z,16.9887
2023-05-09T02:02:45.390Z,16.9738
2023-05-09T02:03:47.573Z,16.9845
2023-05-09T02:04:49.873Z,16.8103
2023-05-09T02:05:52.250Z,16.7978
2023-05-09T02:06:54.578Z,16.6950
2023-05-09T02:07:56.962Z,16.6783
2023-05-09T02:08:59.200Z,16.5878
2023-05-09T02:10:01.653Z,16.5436
2023-05-09T02:11:03.893Z,16.5815
2023-05-09T02:12:06.234Z,16.4689
2023-05-09T02:13:08.577Z,16.6202
2023-05-09T02:14:11.045Z,16.6438
2023-05-09T02:15:13.390Z,16.3256
2023-05-09T02:16:15.932Z,16.5092
2023-05-09T02:17:18.222Z,16.5929
2023-05-09T02:18:20.292Z,16.5775
2023-05-09T02:19:22.612Z,16.6576
2023-05-09T02:20:24.910Z,16.7699
2023-05-09T02:21:29.120Z,16.8192
2023-05-09T02:22:29.696Z,16.8143
2023-05-09T02:23:31.951Z,16.7669
2023-05-09T02:24:34.350Z,16.7322
2023-05-09T02:25:36.655Z,16.8272
2023-05-09T02:26:39.543Z,16.8321
2023-05-09T02:27:41.317Z,16.8463
2023-05-09T02:28:43.657Z,16.8034
2023-05-09T02:29:45.963Z,16.7825
2023-05-09T02:30:48.397Z,16.7767
2023-05-09T02:31:50.758Z,16.8045
2023-05-09T02:32:53.081Z,16.7845
2023-05-09T02:33:55.515Z,16.7008
2023-05-09T02:34:57.620Z,16.6501
2023-05-09T02:36:00.206Z,16.6096
2023-05-09T02:37:02.451Z,16.5768
2023-05-09T02:38:04.631Z,16.6507
2023-05-09T02:39:07.321Z,16.6843
2023-05-09T02:40:09.885Z,16.5170
2023-05-09T02:41:11.705Z,16.5067
2023-05-09T02:42:14.026Z,16.5898
2023-05-09T02:43:16.746Z,16.2638
2023-05-09T02:44:18.673Z,16.1425
2023-05-09T02:45:21.027Z,16.2844
2023-05-09T02:46:23.750Z,16.4244
2023-05-09T02:47:25.694Z,16.6247
2023-05-09T02:48:28.036Z,16.6679
2023-05-09T02:49:32.426Z,16.6691
2023-05-09T02:50:32.751Z,16.6819
2023-05-09T02:51:35.219Z,16.6650
2023-05-09T02:52:37.437Z,16.6269
2023-05-09T02:53:39.794Z,16.5664
2023-05-09T02:54:42.098Z,16.5651
2023-05-09T02:55:44.408Z,16.5855
2023-05-09T02:56:46.830Z,16.6162
2023-05-09T02:57:51.994Z,16.6627
2023-05-09T02:58:51.567Z,16.6907
2023-05-09T02:59:53.854Z,16.7026
2023-05-09T03:00:56.114Z,16.5999
2023-05-09T03:01:58.434Z,16.6042
2023-05-09T03:03:00.859Z,16.6334
2023-05-09T03:04:03.079Z,16.6104
2023-05-09T03:05:05.410Z,16.5857
2023-05-09T03:06:07.771Z,16.5893
2023-05-09T03:07:10.088Z,16.6011
2023-05-09T03:08:12.412Z,16.5860
2023-05-09T03:09:14.809Z,16.5833
2023-05-09T03:10:17.301Z,16.5666
2023-05-09T03:11:19.564Z,16.5644
2023-05-09T03:12:21.852Z,16.5328
2023-05-09T03:13:24.202Z,16.5401
2023-05-09T03:14:26.539Z,16.5548
2023-05-09T03:15:28.775Z,16.5633
2023-05-09T03:16:31.187Z,16.5339
2023-05-09T03:17:33.476Z,16.5860
2023-05-09T03:18:35.759Z,16.6018
2023-05-09T03:19:38.121Z,16.5976
2023-05-09T03:20:40.464Z,16.5806
2023-05-09T03:21:42.881Z,16.5343
2023-05-09T03:22:45.125Z,16.5299
2023-05-09T03:23:47.501Z,16.4954
2023-05-09T03:24:49.801Z,16.4689
2023-05-09T03:25:52.112Z,16.4954
2023-05-09T03:26:54.461Z,16.5165
2023-05-09T03:27:56.880Z,16.5424
2023-05-09T03:28:59.135Z,16.4996
2023-05-09T03:30:01.454Z,16.4845
2023-05-09T03:31:03.949Z,16.5015
2023-05-09T03:32:06.236Z,16.5150
2023-05-09T03:33:08.526Z,16.5096
2023-05-09T03:34:10.794Z,16.5263
2023-05-09T03:35:13.476Z,16.5282
2023-05-09T03:36:15.484Z,16.5125
2023-05-09T03:37:17.817Z,16.4858
2023-05-09T03:38:20.132Z,16.4731
2023-05-09T03:39:22.471Z,16.4676
2023-05-09T03:40:24.971Z,16.4579
2023-05-09T03:41:27.145Z,16.4622
2023-05-09T03:42:29.509Z,16.4694
2023-05-09T03:43:31.919Z,16.4912
2023-05-09T03:44:34.151Z,16.4865
2023-05-09T03:45:36.609Z,16.4782
2023-05-09T03:46:38.896Z,16.4873
2023-05-09T03:47:41.217Z,16.4967
2023-05-09T03:48:43.511Z,16.4930
2023-05-09T03:49:45.847Z,16.5382
2023-05-09T03:50:48.203Z,16.5339
2023-05-09T03:51:50.548Z,16.5248
2023-05-09T03:52:52.843Z,16.5332
2023-05-09T03:53:55.434Z,16.5181
2023-05-09T03:54:57.752Z,16.5446
2023-05-09T03:55:59.871Z,16.5628
2023-05-09T03:57:02.249Z,16.5633
2023-05-09T03:58:04.597Z,16.5975
2023-05-09T03:59:06.950Z,16.6438
2023-05-09T04:00:09.426Z,16.6707
2023-05-09T04:01:11.681Z,16.6997
2023-05-09T04:02:14.840Z,16.6892
2023-05-09T04:03:16.252Z,16.6581
2023-05-09T04:04:19.587Z,16.6398
2023-05-09T04:05:20.879Z,16.6654
2023-05-09T04:06:23.200Z,16.6898
2023-05-09T04:07:25.555Z,16.7473
2023-05-09T04:08:27.881Z,16.7259
2023-05-09T04:09:30.338Z,16.7019
2023-05-09T04:10:32.536Z,16.6959
2023-05-09T04:11:35.250Z,16.7169
2023-05-09T04:12:37.227Z,16.6801
2023-05-09T04:13:39.728Z,16.6570
2023-05-09T04:14:41.980Z,16.6703
2023-05-09T04:15:44.229Z,16.7164
2023-05-09T04:16:46.584Z,16.7315
2023-05-09T04:17:51.305Z,16.7441
2023-05-09T04:18:51.226Z,16.7644
2023-05-09T04:19:53.570Z,16.8125
2023-05-09T04:20:55.894Z,16.8591
2023-05-09T04:21:58.230Z,16.8585
2023-05-09T04:23:00.628Z,16.8433
2023-05-09T04:24:02.908Z,16.8055
2023-05-09T04:25:05.299Z,16.7876
2023-05-09T04:26:07.617Z,16.8399
2023-05-09T04:27:09.947Z,16.8290
2023-05-09T04:28:12.259Z,16.8626
2023-05-09T04:29:14.643Z,16.9204
2023-05-09T04:30:17.046Z,16.9102
2023-05-09T04:31:19.402Z,16.9678
2023-05-09T04:32:21.603Z,17.0212
2023-05-09T04:33:23.960Z,17.0557
2023-05-09T04:34:26.292Z,17.0581
2023-05-09T04:35:28.660Z,17.0452
2023-05-09T04:36:30.966Z,17.0875
2023-05-09T04:37:33.306Z,17.0635
2023-05-09T04:38:35.657Z,17.0559
2023-05-09T04:39:37.973Z,17.0546
2023-05-09T04:40:40.324Z,17.0386
2023-05-09T04:41:42.649Z,17.0330
2023-05-09T04:42:45.024Z,17.0797
2023-05-09T04:43:47.297Z,17.0866
2023-05-09T04:44:49.658Z,17.1374
2023-05-09T04:45:52.066Z,17.1347
2023-05-09T04:46:54.280Z,17.1750
2023-05-09T04:47:56.691Z,17.1917
2023-05-09T04:48:59.682Z,17.2533
2023-05-09T04:50:01.314Z,17.2547
2023-05-09T04:51:03.641Z,17.2678
2023-05-09T04:52:06.003Z,17.3003
2023-05-09T04:53:08.316Z,17.2838
2023-05-09T04:54:10.651Z,17.2600
2023-05-09T04:55:13.260Z,17.2220
2023-05-09T04:56:15.329Z,17.2943
2023-05-09T04:57:18.844Z,17.3514
2023-05-09T04:58:19.999Z,17.3550
2023-05-09T04:59:22.327Z,17.3601
2023-05-09T05:00:24.712Z,17.4018
2023-05-09T05:01:27.120Z,17.4307
2023-05-09T05:02:29.358Z,17.4505
2023-05-09T05:03:31.671Z,17.4155
2023-05-09T05:04:34.061Z,17.4771
2023-05-09T05:05:37.412Z,17.4859
2023-05-09T05:06:38.685Z,17.4876
2023-05-09T05:07:41.033Z,17.5110
2023-05-09T05:08:43.359Z,17.5584
2023-05-09T05:09:45.779Z,17.5923
2023-05-09T05:10:48.246Z,17.5697
2023-05-09T05:11:59.448Z,17.5517
2023-05-09T05:12:52.740Z,17.6408
2023-05-09T05:13:55.043Z,17.6737
2023-05-09T05:14:57.388Z,17.6895
2023-05-09T05:15:59.783Z,17.6739
2023-05-09T05:17:02.136Z,17.6205
2023-05-09T05:18:04.410Z,17.5918
2023-05-09T05:19:06.733Z,17.5860
2023-05-09T05:20:09.065Z,17.6158
2023-05-09T05:21:11.413Z,17.6381
2023-05-09T05:22:13.732Z,17.6327
2023-05-09T05:23:16.061Z,17.5952
2023-05-09T05:24:18.396Z,17.5662
2023-05-09T05:25:20.743Z,17.5646
2023-05-09T05:26:23.084Z,17.6078
2023-05-09T05:27:25.396Z,17.6790
2023-05-09T05:28:27.738Z,17.6918
2023-05-09T05:29:30.067Z,17.7180
2023-05-09T05:30:34.141Z,17.7233
2023-05-09T05:31:34.803Z,17.7887
2023-05-09T05:32:37.173Z,17.7760
2023-05-09T05:33:39.419Z,17.7533
2023-05-09T05:34:41.734Z,17.7253
2023-05-09T05:35:44.086Z,17.6969
2023-05-09T05:36:46.432Z,17.5858
2023-05-09T05:37:49.217Z,17.5884
2023-05-09T05:38:51.092Z,17.6225
2023-05-09T05:39:53.429Z,17.6226
2023-05-09T05:40:55.778Z,17.4325
2023-05-09T05:41:58.487Z,17.3897
2023-05-09T05:43:00.459Z,17.4983
2023-05-09T05:44:02.773Z,17.3624
2023-05-09T05:45:05.144Z,17.4385
2023-05-09T05:46:07.523Z,17.5201
2023-05-09T05:47:09.788Z,17.5286
2023-05-09T05:48:12.234Z,17.4778
2023-05-09T05:49:14.465Z,17.3397
2023-05-09T05:50:16.794Z,17.2682
2023-05-09T05:51:19.122Z,17.1309
2023-05-09T05:52:21.460Z,16.9225
2023-05-09T05:53:23.784Z,16.8116
2023-05-09T05:54:26.122Z,16.9140
2023-05-09T05:55:28.480Z,16.8907
2023-05-09T05:56:30.788Z,16.8154
2023-05-09T05:57:33.119Z,16.8007
2023-05-09T05:58:35.449Z,16.9298
2023-05-09T05:59:37.770Z,16.9497
2023-05-09T06:00:40.136Z,16.7684
2023-05-09T06:01:42.482Z,16.6527
2023-05-09T06:02:44.878Z,16.6741
2023-05-09T06:03:47.355Z,16.7858
2023-05-09T06:04:49.449Z,16.8621
2023-05-09T06:05:51.821Z,16.8375
2023-05-09T06:06:54.114Z,16.9046
2023-05-09T06:07:56.519Z,16.7030
2023-05-09T06:08:58.785Z,16.9963
2023-05-09T06:10:01.110Z,17.0984
2023-05-09T06:11:03.506Z,17.2736
2023-05-09T06:12:05.964Z,17.4166
2023-05-09T06:13:08.141Z,17.5381
2023-05-09T06:14:10.462Z,17.4800
2023-05-09T06:15:13.107Z,17.5139
2023-05-09T06:16:19.679Z,17.5108
2023-05-09T06:17:18.440Z,17.5784
2023-05-09T06:18:19.792Z,17.6369
2023-05-09T06:19:22.175Z,17.6280
2023-05-09T06:20:24.458Z,17.3506
2023-05-09T06:21:26.869Z,17.4459
2023-05-09T06:22:29.147Z,17.5228
2023-05-09T06:23:31.475Z,17.2745
2023-05-09T06:24:36.343Z,17.3816
2023-05-09T06:25:36.192Z,17.7518
2023-05-09T06:26:38.497Z,17.8909
2023-05-09T06:27:40.821Z,17.8735
2023-05-09T06:28:43.166Z,17.8894
2023-05-09T06:29:45.500Z,18.0146
2023-05-09T06:30:47.837Z,17.9360
2023-05-09T06:31:50.553Z,17.9683
2023-05-09T06:32:52.595Z,17.8452
2023-05-09T06:33:54.831Z,17.6672
2023-05-09T06:34:57.250Z,17.9020
2023-05-09T06:35:59.511Z,17.9122
2023-05-09T06:37:01.868Z,17.4792
2023-05-09T06:38:04.179Z,17.6645
2023-05-09T06:39:06.536Z,17.9107
2023-05-09T06:40:08.888Z,18.0700
2023-05-09T06:41:11.194Z,18.2291
2023-05-09T06:42:13.537Z,18.2291
2023-05-09T06:43:15.859Z,18.2255
2023-05-09T06:44:18.190Z,18.2246
2023-05-09T06:45:20.763Z,18.3501
2023-05-09T06:46:22.975Z,18.3464
2023-05-09T06:47:25.249Z,18.4211
2023-05-09T06:48:27.527Z,18.4405
2023-05-09T06:49:29.875Z,18.2696
2023-05-09T06:50:33.016Z,18.0542
2023-05-09T06:51:34.546Z,18.1016
2023-05-09T06:52:36.878Z,18.2117
2023-05-09T06:53:39.209Z,18.1861
2023-05-09T06:54:41.586Z,18.1572
2023-05-09T06:55:43.936Z,18.3018
2023-05-09T06:56:46.270Z,18.4916
2023-05-09T06:57:48.611Z,18.0985
2023-05-09T06:58:50.944Z,18.2039
2023-05-09T06:59:53.272Z,18.4491
2023-05-09T07:00:55.619Z,18.3331
2023-05-09T07:01:58.129Z,17.6416
2023-05-09T07:03:00.345Z,17.8290
2023-05-09T07:04:02.619Z,17.8922
2023-05-09T07:05:04.989Z,17.9006
2023-05-09T07:06:07.385Z,18.2095
2023-05-09T07:07:09.640Z,18.1131
2023-05-09T07:08:11.976Z,18.2965
2023-05-09T07:09:14.304Z,18.0444
2023-05-09T07:10:16.638Z,17.5820
2023-05-09T07:11:18.984Z,17.7119
2023-05-09T07:12:21.305Z,17.6881
2023-05-09T07:13:23.743Z,17.8138
2023-05-09T07:14:25.970Z,17.9939
2023-05-09T07:15:40.602Z,18.1503
2023-05-09T07:16:30.692Z,18.0654
2023-05-09T07:17:33.009Z,18.4990
2023-05-09T07:18:35.321Z,18.6488
2023-05-09T07:19:37.662Z,18.4014
2023-05-09T07:20:39.982Z,18.4750
2023-05-09T07:21:42.415Z,18.8110
2023-05-09T07:22:44.735Z,18.5250
2023-05-09T07:23:47.005Z,18.6715
2023-05-09T07:24:49.318Z,18.6999
2023-05-09T07:25:51.657Z,18.5315
2023-05-09T07:26:53.996Z,18.4160
2023-05-09T07:27:56.339Z,18.3064
2023-05-09T07:28:58.671Z,18.4721
2023-05-09T07:30:01.000Z,18.8464
2023-05-09T07:31:03.337Z,18.7120
2023-05-09T07:32:05.708Z,18.3199
2023-05-09T07:33:08.240Z,18.1535
2023-05-09T07:34:10.368Z,18.1000
2023-05-09T07:35:12.985Z,18.5800
2023-05-09T07:36:15.013Z,18.6739
2023-05-09T07:37:17.492Z,18.8019
2023-05-09T07:38:19.698Z,18.5896
2023-05-09T07:39:22.064Z,18.8490
2023-05-09T07:40:24.368Z,18.7442
2023-05-09T07:41:26.843Z,18.3719
2023-05-09T07:42:29.044Z,18.4309
2023-05-09T07:43:31.372Z,18.4632
2023-05-09T07:44:33.725Z,18.8903
2023-05-09T07:45:36.043Z,18.9963
2023-05-09T07:46:38.402Z,19.0872
2023-05-09T07:47:40.759Z,19.2888
2023-05-09T07:48:43.070Z,19.2574
2023-05-09T07:49:45.417Z,19.4770
2023-05-09T07:50:47.740Z,19.7783
2023-05-09T07:51:50.092Z,19.4856
2023-05-09T07:52:52.530Z,19.4413
2023-05-09T07:53:54.755Z,19.5547
2023-05-09T07:54:57.114Z,19.6600
2023-05-09T07:55:59.437Z,19.3072
2023-05-09T07:57:01.776Z,19.4193
2023-05-09T07:58:04.100Z,19.7603
2023-05-09T07:59:06.458Z,19.6366
2023-05-09T08:00:08.813Z,19.7023
2023-05-09T08:01:11.148Z,19.7822
2023-05-09T08:02:13.503Z,19.8775
2023-05-09T08:03:16.032Z,19.9732
2023-05-09T08:04:18.181Z,19.7854
2023-05-09T08:05:20.975Z,19.5994
2023-05-09T08:06:22.849Z,19.5424
2023-05-09T08:07:25.169Z,19.7863
2023-05-09T08:08:27.529Z,20.0291
2023-05-09T08:09:29.864Z,20.3530
2023-05-09T08:10:32.329Z,20.2665
2023-05-09T08:11:34.553Z,20.0427
2023-05-09T08:12:36.895Z,20.2296
2023-05-09T08:13:39.346Z,20.5338
2023-05-09T08:14:41.556Z,20.8614
2023-05-09T08:15:43.922Z,20.7072
2023-05-09T08:16:46.248Z,20.8391
2023-05-09T08:17:48.705Z,20.3884
2023-05-09T08:18:50.925Z,20.3143
2023-05-09T08:19:53.285Z,20.4512
2023-05-09T08:20:55.596Z,20.7970
2023-05-09T08:21:57.962Z,21.2353
2023-05-09T08:23:00.303Z,20.9904
2023-05-09T08:24:02.739Z,20.7316
2023-05-09T08:25:04.970Z,20.7311
2023-05-09T08:26:07.307Z,20.9546
2023-05-09T08:27:09.661Z,21.1149
2023-05-09T08:28:12.014Z,21.3341
2023-05-09T08:29:14.337Z,21.3466
2023-05-09T08:30:16.748Z,21.5591
2023-05-09T08:31:19.060Z,21.5182
2023-05-09T08:32:21.387Z,21.2830
2023-05-09T08:33:23.749Z,21.1133
2023-05-09T08:34:26.058Z,21.0761
2023-05-09T08:35:28.401Z,21.0711
2023-05-09T08:36:30.758Z,21.0814
2023-05-09T08:37:33.088Z,21.6196
2023-05-09T08:38:35.487Z,21.9174
2023-05-09T08:39:37.869Z,22.0605
2023-05-09T08:40:40.127Z,22.1606
2023-05-09T08:41:42.525Z,22.3080
2023-05-09T08:42:44.863Z,22.3416
2023-05-09T08:43:47.210Z,22.0149
2023-05-09T08:44:49.507Z,21.6255
2023-05-09T08:45:51.872Z,21.9164
2023-05-09T08:46:54.303Z,21.8605
2023-05-09T08:47:56.558Z,21.9079
2023-05-09T08:48:58.930Z,22.3237
2023-05-09T08:50:01.230Z,22.3167
2023-05-09T08:51:03.581Z,22.4827
2023-05-09T08:52:05.986Z,22.1206
2023-05-09T08:53:08.280Z,22.0957
2023-05-09T08:54:10.655Z,22.0680
2023-05-09T08:55:13.096Z,22.4882
2023-05-09T08:56:15.298Z,22.6624
2023-05-09T08:57:17.664Z,22.6314
2023-05-09T08:58:20.005Z,22.5636
2023-05-09T08:59:22.396Z,22.6232
2023-05-09T09:00:24.760Z,22.6773
2023-05-09T09:01:27.102Z,23.1362
2023-05-09T09:02:29.429Z,23.0681
2023-05-09T09:03:31.717Z,23.3496
2023-05-09T09:04:34.134Z,23.5050
2023-05-09T09:05:41.964Z,23.1882
2023-05-09T09:06:38.795Z,22.9321
2023-05-09T09:07:41.103Z,22.5986
2023-05-09T09:08:43.464Z,23.2511
2023-05-09T09:09:45.813Z,22.7703
2023-05-09T09:10:48.254Z,22.6773
2023-05-09T09:11:50.479Z,22.7595
2023-05-09T09:12:52.848Z,22.9442
2023-05-09T09:13:55.191Z,23.4522
2023-05-09T09:14:57.531Z,23.5349
2023-05-09T09:16:00.141Z,23.3187
2023-05-09T09:17:02.209Z,23.5338
2023-05-09T09:18:07.535Z,23.9248
2023-05-09T09:19:06.899Z,23.8863
2023-05-09T09:20:09.268Z,23.2793
2023-05-09T09:21:11.729Z,22.9384
2023-05-09T09:22:13.965Z,22.9119
2023-05-09T09:23:16.278Z,23.1041
2023-05-09T09:24:18.641Z,23.3592
2023-05-09T09:25:20.995Z,23.5766
2023-05-09T09:26:23.425Z,23.6629
2023-05-09T09:27:25.676Z,23.6774
2023-05-09T09:28:28.030Z,23.3551
2023-05-09T09:29:30.383Z,23.6739
2023-05-09T09:30:32.714Z,24.1113
2023-05-09T09:31:35.100Z,24.1414
2023-05-09T09:32:37.487Z,23.8996
2023-05-09T09:33:39.759Z,24.3176
2023-05-09T09:34:42.155Z,24.6339
2023-05-09T09:35:44.453Z,24.1985
2023-05-09T09:36:46.815Z,24.0865
2023-05-09T09:37:49.154Z,23.8410
2023-05-09T09:38:51.493Z,23.2694
2023-05-09T09:39:53.866Z,23.3035
2023-05-09T09:40:56.242Z,23.9250
2023-05-09T09:41:58.625Z,24.3596
2023-05-09T09:43:00.882Z,24.3000
2023-05-09T09:44:03.233Z,24.5150
2023-05-09T09:45:05.589Z,24.8755
2023-05-09T09:46:07.934Z,24.3412
2023-05-09T09:47:10.272Z,24.3082
2023-05-09T09:48:12.685Z,24.7170
2023-05-09T09:49:15.007Z,24.6961
2023-05-09T09:50:17.463Z,24.7241
2023-05-09T09:51:19.667Z,24.6569
2023-05-09T09:52:22.022Z,24.4528
2023-05-09T09:53:24.367Z,24.3712
2023-05-09T09:54:26.740Z,24.7432
2023-05-09T09:55:29.088Z,25.1140
2023-05-09T09:56:31.428Z,25.3759
2023-05-09T09:57:33.863Z,25.4627
2023-05-09T09:58:36.121Z,25.2442
2023-05-09T09:59:38.521Z,25.0302
2023-05-09T10:00:40.866Z,25.4765
2023-05-09T10:01:43.244Z,25.4142
2023-05-09T10:02:45.557Z,25.3948
2023-05-09T10:03:47.956Z,24.8545
2023-05-09T10:04:50.247Z,24.8959
2023-05-09T10:05:52.582Z,24.5356
2023-05-09T10:06:54.958Z,25.3832
2023-05-09T10:07:57.275Z,25.6690
2023-05-09T10:08:59.645Z,24.9346
2023-05-09T10:10:02.039Z,25.1402
2023-05-09T10:11:04.340Z,25.2964
2023-05-09T10:12:06.703Z,25.2782
2023-05-09T10:13:09.158Z,24.1914
2023-05-09T10:14:11.383Z,24.6696
2023-05-09T10:15:13.756Z,24.6758
2023-05-09T10:16:16.193Z,25.0490
2023-05-09T10:17:18.507Z,24.8928
2023-05-09T10:18:20.970Z,24.7708
2023-05-09T10:19:23.134Z,24.9558
2023-05-09T10:20:25.529Z,25.3298
2023-05-09T10:21:27.827Z,25.2326
2023-05-09T10:22:30.173Z,24.7706
2023-05-09T10:23:32.546Z,24.7415
2023-05-09T10:24:34.908Z,25.0659
2023-05-09T10:25:37.263Z,24.6889
2023-05-09T10:26:39.577Z,24.5236
2023-05-09T10:27:41.942Z,24.7379
2023-05-09T10:28:44.378Z,25.2915
2023-05-09T10:29:46.665Z,25.0757
2023-05-09T10:30:49.030Z,25.4504
2023-05-09T10:31:51.466Z,25.4954
2023-05-09T10:32:53.722Z,24.9595
2023-05-09T10:33:56.079Z,24.9947
2023-05-09T10:34:58.393Z,25.3539
2023-05-09T10:36:00.755Z,25.1062
2023-05-09T10:37:03.118Z,25.5426
2023-05-09T10:38:05.462Z,25.6240
2023-05-09T10:39:07.798Z,25.5951
2023-05-09T10:40:10.149Z,25.7657
2023-05-09T10:41:12.496Z,25.2902
2023-05-09T10:42:14.864Z,25.5416
2023-05-09T10:43:17.216Z,25.2206
2023-05-09T10:44:19.659Z,24.8708
2023-05-09T10:45:21.893Z,25.2288
2023-05-09T10:46:24.363Z,25.6614
2023-05-09T10:47:51.445Z,25.8103
2023-05-09T10:48:28.999Z,26.1525
2023-05-09T10:49:31.351Z,26.3897
2023-05-09T10:50:33.702Z,26.1910
2023-05-09T10:51:36.036Z,26.1238
2023-05-09T10:52:38.366Z,26.4852
2023-05-09T10:53:40.749Z,26.4950
2023-05-09T10:54:43.488Z,26.1905
2023-05-09T10:55:45.428Z,25.7827
2023-05-09T10:56:47.772Z,26.2673
2023-05-09T10:57:50.130Z,26.4994
2023-05-09T10:58:52.480Z,26.4780
2023-05-09T10:59:55.009Z,26.6952
2023-05-09T11:00:57.445Z,26.1472
2023-05-09T11:01:59.712Z,25.4282
2023-05-09T11:03:02.095Z,25.5597
2023-05-09T11:04:04.341Z,25.8116
2023-05-09T11:05:06.690Z,25.9395
2023-05-09T11:06:08.999Z,25.9164
2023-05-09T11:07:11.376Z,25.8666
2023-05-09T11:08:13.717Z,25.8356
2023-05-09T11:09:16.074Z,25.6523
2023-05-09T11:10:18.523Z,25.5762
2023-05-09T11:11:20.769Z,25.7807
2023-05-09T11:12:23.123Z,25.9711
2023-05-09T11:13:25.536Z,26.1576
2023-05-09T11:14:27.799Z,26.0241
2023-05-09T11:15:30.337Z,26.0471
2023-05-09T11:16:32.519Z,25.8659
2023-05-09T11:17:34.924Z,26.0346
2023-05-09T11:18:37.274Z,26.0642
2023-05-09T11:19:39.568Z,25.9030
2023-05-09T11:20:41.978Z,24.8630
2023-05-09T11:21:44.276Z,25.2041
2023-05-09T11:22:46.632Z,25.4584
2023-05-09T11:23:48.931Z,24.9086
2023-05-09T11:24:51.281Z,25.0782
2023-05-09T11:25:53.667Z,25.3820
2023-05-09T11:26:56.143Z,25.4776
2023-05-09T11:27:58.346Z,25.4041
2023-05-09T11:29:00.702Z,25.1124
2023-05-09T11:30:03.052Z,24.9860
2023-05-09T11:31:05.489Z,25.6216
2023-05-09T11:32:07.944Z,25.7869
2023-05-09T11:33:10.090Z,25.8652
2023-05-09T11:34:12.410Z,25.6360
2023-05-09T11:35:15.366Z,25.7384
2023-05-09T11:36:17.165Z,25.5119
2023-05-09T11:37:19.554Z,25.4533
2023-05-09T11:38:21.843Z,24.8837
2023-05-09T11:39:24.190Z,24.7895
2023-05-09T11:40:26.505Z,25.0107
2023-05-09T11:41:29.006Z,24.4375
2023-05-09T11:42:31.230Z,24.7395
2023-05-09T11:43:33.609Z,24.9110
2023-05-09T11:44:35.934Z,25.4151
2023-05-09T11:45:38.325Z,25.2468
2023-05-09T11:46:40.658Z,25.1207
2023-05-09T11:47:43.048Z,24.5537
2023-05-09T11:48:45.483Z,24.8621
2023-05-09T11:49:49.964Z,24.2762
2023-05-09T11:50:50.080Z,23.2646
2023-05-09T11:51:52.320Z,22.7968
2023-05-09T11:52:54.700Z,22.9710
2023-05-09T11:53:57.030Z,23.4642
2023-05-09T11:54:59.523Z,23.9324
2023-05-09T11:56:02.160Z,24.2136
2023-05-09T11:57:04.126Z,23.9987
2023-05-09T11:58:06.563Z,24.4475
2023-05-09T11:59:08.766Z,24.7003
2023-05-09T12:00:11.229Z,24.8469
2023-05-09T12:01:13.587Z,25.1042
2023-05-09T12:02:15.871Z,25.0334
2023-05-09T12:03:18.489Z,24.5953
2023-05-09T12:04:20.472Z,25.1531
2023-05-09T12:05:23.093Z,25.3554
2023-05-09T12:06:26.254Z,25.3189
2023-05-09T12:07:27.530Z,25.2596
2023-05-09T12:08:29.938Z,25.3279
2023-05-09T12:09:32.199Z,25.4785
2023-05-09T12:10:34.542Z,25.7221
2023-05-09T12:11:37.189Z,25.7464
2023-05-09T12:12:39.284Z,25.5904
2023-05-09T12:13:41.594Z,25.3993
2023-05-09T12:14:44.855Z,24.5648
2023-05-09T12:15:46.373Z,24.8033
2023-05-09T12:16:48.674Z,24.7424
2023-05-09T12:17:52.103Z,24.7299
2023-05-09T12:18:53.333Z,24.6723
2023-05-09T12:19:55.635Z,25.1529
2023-05-09T12:20:57.985Z,25.3151
2023-05-09T12:22:00.321Z,25.4058
2023-05-09T12:23:02.697Z,25.5160
2023-05-09T12:24:05.044Z,25.6282
2023-05-09T12:25:07.447Z,25.7540
2023-05-09T12:26:09.724Z,25.7677
2023-05-09T12:27:12.209Z,25.6870
2023-05-09T12:28:14.840Z,25.5613
2023-05-09T12:29:17.089Z,25.2742
2023-05-09T12:30:19.172Z,24.8158
2023-05-09T12:31:21.541Z,25.0541
2023-05-09T12:32:23.801Z,25.2344
2023-05-09T12:33:26.828Z,25.1017